Time;durP1;ratioP1;P1;durP2;ratioP2;P2;SDS_P1;SDS_P2;PMS_P1;PMS_P2;Temp;Humidity;BMP_temperature;BMP_pressure;BME280_temperature;BME280_humidity;BME280_pressure;Samples;Min_cycle;Max_cycle;Signal;HPM_P1;HPM_P2
2024/04/11 00:01:54;;;;;;;10.23;4.30;;;;;;;3.08;100.00;98707.47;5417726;26;20003;-60
2024/04/11 00:04:25;;;;;;;7.80;3.83;;;;;;;3.02;100.00;98713.50;5405346;26;20357;-60
2024/04/11 00:06:51;;;;;;;8.38;3.75;;;;;;;2.98;100.00;98702.28;5413255;26;19998;-60
2024/04/11 00:09:18;;;;;;;8.25;3.08;;;;;;;2.97;100.00;98708.66;5388353;26;20080;-60
2024/04/11 00:11:45;;;;;;;7.53;2.95;;;;;;;2.92;100.00;98711.84;5406022;26;19999;-60
2024/04/11 00:14:12;;;;;;;5.75;2.90;;;;;;;3.00;100.00;98700.28;5401239;26;20011;-60
2024/04/11 00:16:38;;;;;;;7.60;2.58;;;;;;;2.94;100.00;98709.84;5418146;26;20084;-59
2024/04/11 00:19:05;;;;;;;6.13;2.22;;;;;;;2.99;100.00;98709.34;5397035;26;20004;-60
2024/04/11 00:21:32;;;;;;;9.95;3.38;;;;;;;3.04;100.00;98701.63;5420658;26;19999;-60
2024/04/11 00:23:58;;;;;;;8.20;3.20;;;;;;;3.04;100.00;98696.28;5408762;26;20032;-61
2024/04/11 00:26:26;;;;;;;6.85;2.72;;;;;;;3.07;100.00;98695.94;5403757;26;20069;-60
2024/04/11 00:28:53;;;;;;;8.75;2.88;;;;;;;3.15;100.00;98694.22;5397791;26;20007;-61
2024/04/11 00:31:20;;;;;;;8.10;3.20;;;;;;;3.17;100.00;98694.91;5413508;26;20506;-61
2024/04/11 00:33:56;;;;;;;8.70;3.53;;;;;;;3.11;100.00;98691.91;5395614;26;20014;-60
2024/04/11 00:36:24;;;;;;;9.68;4.22;;;;;;;2.94;100.00;98690.25;5388907;26;20010;-61
2024/04/11 00:38:52;;;;;;;11.30;4.30;;;;;;;2.92;100.00;98693.13;5392120;26;20005;-61
2024/04/11 00:41:19;;;;;;;14.43;4.03;;;;;;;2.85;100.00;98692.94;5420989;26;20099;-60
2024/04/11 00:43:47;;;;;;;9.43;4.55;;;;;;;2.76;100.00;98691.28;5411085;26;20004;-60
2024/04/11 00:46:17;;;;;;;10.27;4.68;;;;;;;2.68;100.00;98692.13;5425063;26;20013;-61
2024/04/11 00:48:45;;;;;;;6.72;3.83;;;;;;;2.67;100.00;98695.81;5401819;26;20011;-60
2024/04/11 00:51:11;;;;;;;8.40;3.50;;;;;;;2.60;100.00;98692.13;5399008;26;20009;-61
2024/04/11 00:53:40;;;;;;;8.18;3.15;;;;;;;2.58;100.00;98696.84;5403182;26;20011;-61
2024/04/11 00:56:08;;;;;;;8.98;3.75;;;;;;;2.51;100.00;98699.31;5402147;26;20000;-61
2024/04/11 00:58:36;;;;;;;9.25;3.67;;;;;;;2.54;100.00;98701.66;5425047;26;19999;-60
2024/04/11 01:01:04;;;;;;;14.30;3.70;;;;;;;2.49;100.00;98700.47;5406301;26;20000;-60
2024/04/11 01:03:32;;;;;;;10.93;3.83;;;;;;;2.50;100.00;98702.19;5394498;26;20471;-61
2024/04/11 01:05:59;;;;;;;6.97;3.00;;;;;;;2.61;100.00;98704.50;5403825;26;20011;-61
2024/04/11 01:08:29;;;;;;;6.30;2.63;;;;;;;2.54;100.00;98703.53;5407895;26;20020;-61
2024/04/11 01:10:56;;;;;;;6.60;2.90;;;;;;;2.55;100.00;98702.50;5405066;26;20003;-60
2024/04/11 01:13:23;;;;;;;5.38;2.17;;;;;;;2.70;100.00;98700.81;5390866;26;20020;-60
2024/04/11 01:15:50;;;;;;;4.65;2.53;;;;;;;2.77;100.00;98701.00;5407937;26;20055;-61
2024/04/11 01:18:19;;;;;;;6.38;2.63;;;;;;;2.76;100.00;98704.66;5393024;26;20101;-61
2024/04/11 01:20:46;;;;;;;5.63;1.90;;;;;;;2.88;100.00;98696.28;5432788;26;20010;-61
2024/04/11 01:23:13;;;;;;;5.65;2.97;;;;;;;2.88;100.00;98707.84;5423428;26;20580;-61
2024/04/11 01:25:39;;;;;;;8.23;2.67;;;;;;;2.94;100.00;98700.97;5393928;26;20008;-61
2024/04/11 01:28:06;;;;;;;5.20;2.33;;;;;;;3.00;100.00;98705.66;5389431;26;20000;-60
2024/04/11 01:30:33;;;;;;;7.63;2.53;;;;;;;3.05;100.00;98705.97;5405586;26;20071;-60
2024/04/11 01:33:09;;;;;;;4.53;1.95;;;;;;;2.91;100.00;98712.84;5409505;26;20074;-61
2024/04/11 01:35:37;;;;;;;5.80;1.95;;;;;;;2.97;100.00;98698.78;5413322;26;19999;-61
2024/04/11 01:38:05;;;;;;;11.02;2.50;;;;;;;2.96;100.00;98707.00;5401456;26;20007;-61
2024/04/11 01:40:34;;;;;;;5.00;2.15;;;;;;;3.00;100.00;98700.28;5401873;26;19996;-61
2024/04/11 01:43:02;;;;;;;5.90;2.47;;;;;;;3.03;100.00;98701.78;5394909;26;20008;-61
2024/04/11 01:45:28;;;;;;;6.65;2.30;;;;;;;3.04;100.00;98695.44;5411211;26;20012;-62
2024/04/11 01:47:55;;;;;;;7.03;2.75;;;;;;;3.10;100.00;98697.44;5408866;26;20007;-61
2024/04/11 01:50:22;;;;;;;5.10;1.95;;;;;;;3.01;100.00;98695.75;5409106;26;20001;-61
2024/04/11 01:52:49;;;;;;;4.80;1.88;;;;;;;2.97;100.00;98696.13;5398897;26;20007;-60
2024/04/11 01:55:16;;;;;;;4.93;2.17;;;;;;;3.02;100.00;98695.59;5395846;26;20707;-61
2024/04/11 01:57:42;;;;;;;6.85;2.20;;;;;;;2.98;100.00;98697.78;5384076;26;20008;-61
2024/04/11 02:00:13;;;;;;;6.47;2.28;;;;;;;2.77;100.00;98689.47;5405358;26;20034;-61
2024/04/11 02:02:43;;;;;;;4.95;2.03;;;;;;;2.88;100.00;98691.78;5395754;26;20042;-60
2024/04/11 02:05:11;;;;;;;7.28;2.63;;;;;;;2.85;100.00;98681.41;5396994;26;20004;-61
2024/04/11 02:07:38;;;;;;;5.07;2.33;;;;;;;2.66;100.00;98678.09;5405886;26;20108;-61
2024/04/11 02:10:05;;;;;;;5.75;2.67;;;;;;;2.70;100.00;98684.75;5408441;26;20012;-61
2024/04/11 02:12:32;;;;;;;6.28;2.42;;;;;;;2.58;100.00;98692.31;5413924;26;20201;-61
2024/04/11 02:14:59;;;;;;;19.33;3.83;;;;;;;2.42;100.00;98687.78;5412254;26;20003;-60
2024/04/11 02:17:26;;;;;;;6.03;2.80;;;;;;;2.45;100.00;98683.94;5418578;26;20002;-61
2024/04/11 02:19:53;;;;;;;5.90;2.67;;;;;;;2.28;100.00;98691.13;5423116;26;20000;-60
2024/04/11 02:22:20;;;;;;;6.82;2.65;;;;;;;2.24;100.00;98690.63;5402647;26;20374;-61
2024/04/11 02:24:47;;;;;;;5.03;2.47;;;;;;;2.28;100.00;98693.81;5413094;26;20002;-60
2024/04/11 02:27:13;;;;;;;5.35;2.78;;;;;;;2.15;100.00;98700.47;5410513;26;20000;-60
2024/04/11 02:29:40;;;;;;;6.55;2.63;;;;;;;2.08;100.00;98704.78;5378984;26;20016;-61
2024/04/11 02:32:07;;;;;;;11.45;3.25;;;;;;;1.95;100.00;98700.75;5413231;26;20000;-60
2024/04/11 02:34:33;;;;;;;6.22;2.88;;;;;;;1.83;100.00;98696.72;5419129;26;20014;-60
2024/04/11 02:37:00;;;;;;;7.80;2.28;;;;;;;1.94;100.00;98695.56;5403524;26;20015;-61
2024/04/11 02:39:27;;;;;;;6.35;2.70;;;;;;;2.04;100.00;98698.09;5394325;26;20016;-61
2024/04/11 02:41:53;;;;;;;6.68;3.50;;;;;;;1.97;100.00;98697.94;5398665;26;20789;-60
2024/04/11 02:44:20;;;;;;;7.30;2.95;;;;;;;1.90;100.00;98697.75;5413461;26;20015;-60
2024/04/11 02:46:47;;;;;;;6.50;3.00;;;;;;;1.94;100.00;98703.59;5413531;26;20006;-61
2024/04/11 02:49:15;;;;;;;7.47;3.40;;;;;;;1.91;100.00;98707.44;5409630;26;20018;-61
2024/04/11 02:51:41;;;;;;;6.97;3.25;;;;;;;1.92;100.00;98702.94;5405874;26;20000;-61
2024/04/11 02:54:10;;;;;;;8.02;3.58;;;;;;;1.76;100.00;98704.53;5395102;26;20020;-60
2024/04/11 02:56:37;;;;;;;6.28;2.78;;;;;;;1.67;100.00;98709.00;5382942;26;20004;-60
2024/04/11 02:59:04;;;;;;;6.55;2.75;;;;;;;1.65;100.00;98705.69;5401101;26;20000;-60
2024/04/11 03:01:31;;;;;;;7.75;3.17;;;;;;;1.63;100.00;98699.69;5416468;26;20522;-60
2024/04/11 03:03:59;;;;;;;7.43;3.17;;;;;;;1.61;100.00;98703.47;5393698;26;20348;-61
2024/04/11 03:06:26;;;;;;;6.70;3.13;;;;;;;1.64;100.00;98700.50;5398392;26;20011;-60
2024/04/11 03:08:56;;;;;;;7.05;3.38;;;;;;;1.63;100.00;98705.00;5401106;26;20047;-61
2024/04/11 03:11:24;;;;;;;8.05;3.05;;;;;;;1.63;100.00;98709.50;5420613;26;20339;-61
2024/04/11 03:13:58;;;;;;;5.45;2.63;;;;;;;1.51;100.00;98715.13;5405361;26;20374;-60
2024/04/11 03:16:27;;;;;;;5.00;2.67;;;;;;;1.45;100.00;98707.78;5383493;26;20005;-60
2024/04/11 03:18:54;;;;;;;9.60;3.35;;;;;;;1.55;100.00;98708.47;5414272;26;20003;-61
2024/04/11 03:21:21;;;;;;;6.43;3.10;;;;;;;1.63;100.00;98710.34;5392394;26;20004;-60
2024/04/11 03:23:48;;;;;;;4.90;3.00;;;;;;;1.60;100.00;98705.31;5390728;26;20003;-60
2024/04/11 03:26:15;;;;;;;10.65;3.45;;;;;;;1.51;100.00;98715.13;5413882;26;20003;-60
2024/04/11 03:28:44;;;;;;;5.50;3.00;;;;;;;1.52;100.00;98708.78;5418229;26;20003;-60
2024/04/11 03:31:13;;;;;;;5.30;2.80;;;;;;;1.51;100.00;98717.78;5402296;26;20482;-61
2024/04/11 03:33:40;;;;;;;5.70;2.70;;;;;;;1.51;100.00;98723.13;5410741;26;20129;-60
2024/04/11 03:36:12;;;;;;;5.22;2.88;;;;;;;1.50;100.00;98720.63;5402637;26;20408;-60
2024/04/11 03:38:40;;;;;;;8.32;3.33;;;;;;;1.54;100.00;98722.81;5426365;26;20048;-60
2024/04/11 03:41:08;;;;;;;6.75;3.35;;;;;;;1.60;100.00;98715.16;5400778;26;20000;-61
2024/04/11 03:43:40;;;;;;;5.68;2.67;;;;;;;1.68;100.00;98717.88;5440770;26;20522;-61
2024/04/11 03:46:07;;;;;;;5.72;2.63;;;;;;;1.70;100.00;98726.56;5396800;26;20007;-61
2024/04/11 03:48:34;;;;;;;5.40;3.25;;;;;;;1.82;100.00;98716.41;5434465;26;20013;-61
2024/04/11 03:51:15;;;;;;;5.97;2.70;;;;;;;1.90;100.00;98727.13;5410500;26;20000;-61
2024/04/11 03:53:42;;;;;;;6.60;3.00;;;;;;;1.87;100.00;98724.78;5434546;26;19999;-60
2024/04/11 03:56:09;;;;;;;8.18;2.88;;;;;;;1.85;100.00;98725.94;5423137;26;20015;-61
2024/04/11 03:58:37;;;;;;;6.95;3.08;;;;;;;1.75;100.00;98732.25;5407878;26;20008;-61
2024/04/11 04:01:05;;;;;;;7.18;2.90;;;;;;;1.80;100.00;98726.41;5412053;26;20010;-60
2024/04/11 04:03:33;;;;;;;5.15;2.72;;;;;;;1.85;100.00;98733.94;5431064;26;20433;-61
2024/04/11 04:06:00;;;;;;;6.55;2.45;;;;;;;1.87;100.00;98732.78;5415911;26;20000;-60
2024/04/11 04:08:28;;;;;;;8.18;2.80;;;;;;;1.98;100.00;98728.97;5398818;26;20000;-61
2024/04/11 04:10:55;;;;;;;6.32;2.70;;;;;;;2.00;100.00;98736.84;5407000;26;20011;-60
2024/04/11 04:13:22;;;;;;;7.03;3.00;;;;;;;2.01;100.00;98736.69;5404868;26;20547;-60
2024/04/11 04:15:49;;;;;;;7.10;2.83;;;;;;;1.99;100.00;98735.16;5410912;26;20486;-60
2024/04/11 04:18:16;;;;;;;6.10;2.30;;;;;;;2.11;100.00;98733.88;5404642;26;20054;-60
2024/04/11 04:20:43;;;;;;;4.72;2.00;;;;;;;2.17;100.00;98735.88;5430625;26;20065;-60
2024/04/11 04:23:10;;;;;;;6.78;2.78;;;;;;;2.12;100.00;98737.34;5398022;26;20434;-61
2024/04/11 04:25:39;;;;;;;6.18;2.60;;;;;;;1.88;100.00;98738.97;5411637;26;20008;-60
2024/04/11 04:28:07;;;;;;;5.90;2.75;;;;;;;1.68;100.00;98745.41;5396256;26;20008;-61
2024/04/11 04:30:34;;;;;;;10.43;3.40;;;;;;;1.55;100.00;98745.03;5406531;26;20313;-60
2024/04/11 04:33:01;;;;;;;7.68;2.72;;;;;;;1.54;100.00;98754.84;5408247;26;20003;-60
2024/04/11 04:35:28;;;;;;;7.45;2.75;;;;;;;1.64;100.00;98762.75;5408022;26;20003;-60
2024/04/11 04:37:57;;;;;;;9.23;3.03;;;;;;;1.70;100.00;98763.94;5393100;26;20360;-60
2024/04/11 04:40:25;;;;;;;5.53;2.58;;;;;;;1.69;100.00;98759.59;5387841;26;20034;-60
2024/04/11 04:42:52;;;;;;;6.40;2.70;;;;;;;1.64;100.00;98764.56;5422372;26;20010;-60
2024/04/11 04:45:19;;;;;;;11.48;2.60;;;;;;;1.73;100.00;98763.59;5413919;26;21266;-60
2024/04/11 04:47:47;;;;;;;7.28;2.63;;;;;;;1.83;100.00;98773.34;5407240;26;20011;-60
2024/04/11 04:50:14;;;;;;;5.88;3.00;;;;;;;1.86;100.00;98768.50;5388706;26;20007;-60
2024/04/11 04:52:43;;;;;;;5.55;2.60;;;;;;;1.79;100.00;98778.16;5398618;26;20018;-60
2024/04/11 04:55:10;;;;;;;10.20;2.83;;;;;;;1.81;100.00;98773.50;5425515;26;20010;-60
2024/04/11 04:57:37;;;;;;;7.43;2.47;;;;;;;1.87;100.00;98782.69;5422181;26;20264;-61
2024/04/11 05:00:06;;;;;;;7.25;2.78;;;;;;;1.84;100.00;98786.53;5416893;26;20025;-61
2024/04/11 05:02:35;;;;;;;5.15;2.30;;;;;;;1.83;100.00;98784.03;5401400;26;20011;-61
2024/04/11 05:05:03;;;;;;;6.75;3.22;;;;;;;1.68;100.00;98785.47;5397414;26;20056;-61
2024/04/11 05:07:30;;;;;;;4.57;2.33;;;;;;;1.70;100.00;98796.00;5430150;26;20003;-61
2024/04/11 05:09:57;;;;;;;9.43;2.85;;;;;;;1.74;100.00;98796.50;5419885;26;20031;-61
2024/04/11 05:12:25;;;;;;;8.05;3.20;;;;;;;1.83;100.00;98790.19;5409454;26;20010;-61
2024/04/11 05:14:52;;;;;;;7.10;2.75;;;;;;;1.97;100.00;98798.59;5398322;26;20479;-60
2024/04/11 05:17:20;;;;;;;7.20;2.72;;;;;;;1.98;100.00;98797.63;5427596;26;20018;-60
2024/04/11 05:19:47;;;;;;;11.00;2.63;;;;;;;2.03;100.00;98801.47;5412923;26;20009;-60
2024/04/11 05:22:14;;;;;;;8.68;3.20;;;;;;;1.83;100.00;98792.06;5408499;26;20057;-61
2024/04/11 05:24:41;;;;;;;7.85;3.03;;;;;;;1.58;100.00;98797.25;5410348;26;20021;-61
2024/04/11 05:27:08;;;;;;;6.55;3.10;;;;;;;1.61;100.00;98796.91;5419652;26;20023;-60
2024/04/11 05:29:36;;;;;;;7.72;3.50;;;;;;;1.76;100.00;98805.19;5406482;26;20007;-61
2024/04/11 05:32:04;;;;;;;7.25;2.97;;;;;;;1.93;100.00;98803.44;5401293;26;20038;-60
2024/04/11 05:34:32;;;;;;;7.88;3.15;;;;;;;2.01;100.00;98808.81;5406092;26;20101;-61
2024/04/11 05:36:59;;;;;;;7.07;3.15;;;;;;;2.13;100.00;98801.34;5416214;26;20010;-60
2024/04/11 05:39:26;;;;;;;6.50;3.13;;;;;;;2.26;100.00;98800.88;5399586;26;20037;-60
2024/04/11 05:41:55;;;;;;;6.43;3.20;;;;;;;2.34;100.00;98802.72;5408287;26;20092;-60
2024/04/11 05:44:24;;;;;;;9.85;3.30;;;;;;;2.46;100.00;98798.75;5412075;26;20626;-60
2024/04/11 05:46:51;;;;;;;10.75;3.75;;;;;;;2.47;100.00;98799.59;5415394;26;20010;-60
2024/04/11 05:49:18;;;;;;;6.72;3.10;;;;;;;2.46;100.00;98798.75;5398923;26;20007;-60
2024/04/11 05:51:45;;;;;;;8.10;2.83;;;;;;;2.59;100.00;98810.81;5399566;26;20048;-60
2024/04/11 05:54:12;;;;;;;7.57;3.20;;;;;;;2.65;100.00;98802.13;5396271;26;19996;-61
2024/04/11 05:56:38;;;;;;;8.80;4.30;;;;;;;2.75;100.00;98803.78;5424756;26;20003;-61
2024/04/11 05:59:06;;;;;;;6.85;3.80;;;;;;;2.79;100.00;98805.97;5412554;26;20067;-60
2024/04/11 06:01:36;;;;;;;9.55;4.30;;;;;;;2.93;100.00;98793.78;5408819;26;20017;-60
2024/04/11 06:04:05;;;;;;;8.93;4.18;;;;;;;3.06;100.00;98795.94;5407465;26;20522;-60
2024/04/11 06:06:33;;;;;;;8.27;4.10;;;;;;;3.13;100.00;98801.47;5404917;26;20003;-60
2024/04/11 06:09:00;;;;;;;10.93;4.38;;;;;;;3.22;100.00;98800.47;5416370;26;20039;-61
2024/04/11 06:11:28;;;;;;;7.18;4.00;;;;;;;3.35;100.00;98804.44;5414510;26;20162;-61
2024/04/11 06:13:55;;;;;;;8.88;4.07;;;;;;;3.51;100.00;98809.78;5414927;26;20000;-61
2024/04/11 06:16:21;;;;;;;10.52;3.88;;;;;;;3.69;100.00;98806.03;5415147;26;20480;-60
2024/04/11 06:18:48;;;;;;;11.43;4.55;;;;;;;3.90;100.00;98818.03;5408837;26;20081;-60
2024/04/11 06:21:18;;;;;;;9.38;3.25;;;;;;;4.08;100.00;98806.25;5407399;26;20019;-61
2024/04/11 06:23:45;;;;;;;10.88;4.25;;;;;;;4.25;100.00;98823.94;5420275;26;20012;-61
2024/04/11 06:26:14;;;;;;;8.52;3.58;;;;;;;4.39;100.00;98819.66;5400827;26;20008;-61
2024/04/11 06:28:41;;;;;;;6.78;3.65;;;;;;;4.55;100.00;98824.13;5413046;26;20125;-61
2024/04/11 06:31:12;;;;;;;8.18;3.85;;;;;;;4.74;100.00;98829.19;5413700;26;20026;-61
2024/04/11 06:33:40;;;;;;;12.85;3.63;;;;;;;4.93;100.00;98834.09;5430079;26;19995;-60
2024/04/11 06:36:12;;;;;;;8.90;3.00;;;;;;;5.11;100.00;98835.63;5430837;26;20006;-60
2024/04/11 06:38:39;;;;;;;7.50;2.65;;;;;;;5.29;100.00;98840.69;5419451;26;20055;-61
2024/04/11 06:41:08;;;;;;;8.05;3.00;;;;;;;5.46;100.00;98852.13;5400778;26;20060;-60
2024/04/11 06:43:37;;;;;;;8.40;3.10;;;;;;;5.60;100.00;98853.16;5408533;26;19999;-61
2024/04/11 06:46:06;;;;;;;6.65;2.70;;;;;;;5.83;100.00;98852.25;5405961;26;20057;-61
2024/04/11 06:48:35;;;;;;;8.63;2.83;;;;;;;6.06;100.00;98855.91;5397305;26;20087;-60
2024/04/11 06:51:06;;;;;;;6.38;2.55;;;;;;;6.21;100.00;98854.06;5405896;26;19999;-61
2024/04/11 06:53:33;;;;;;;6.20;2.72;;;;;;;6.37;100.00;98854.84;5408151;26;20011;-61
2024/04/11 06:56:00;;;;;;;8.40;2.00;;;;;;;6.57;100.00;98849.75;5408153;26;19995;-60
2024/04/11 06:58:26;;;;;;;4.60;2.10;;;;;;;6.72;100.00;98848.84;5405152;26;20046;-60
2024/04/11 07:00:58;;;;;;;6.73;2.13;;;;;;;6.82;100.00;98849.38;5394098;26;20011;-60
2024/04/11 07:03:26;;;;;;;5.88;2.38;;;;;;;6.96;100.00;98846.84;5413967;26;19996;-60
2024/04/11 07:06:00;;;;;;;7.00;1.98;;;;;;;7.09;100.00;98849.66;5406082;26;20003;-60
2024/04/11 07:08:31;;;;;;;6.20;1.73;;;;;;;7.25;100.00;98853.94;5417887;26;20002;-60
2024/04/11 07:11:20;;;;;;;5.63;2.00;;;;;;;7.44;100.00;98850.78;5384959;26;20004;-60
2024/04/11 07:13:55;;;;;;;6.45;2.35;;;;;;;7.53;100.00;98847.72;5404473;26;20715;-60
2024/04/11 07:16:29;;;;;;;4.00;1.77;;;;;;;7.61;100.00;98849.47;5402912;26;20011;-60
2024/04/11 07:18:56;;;;;;;7.00;1.98;;;;;;;7.70;100.00;98857.41;5436509;26;19999;-61
2024/04/11 07:21:28;;;;;;;4.00;1.70;;;;;;;7.76;100.00;98862.00;5414513;26;20677;-61
2024/04/11 07:23:58;;;;;;;5.47;1.90;;;;;;;7.99;100.00;98852.81;5416860;26;20006;-61
2024/04/11 07:26:31;;;;;;;5.18;1.88;;;;;;;8.07;100.00;98855.34;5418109;26;20003;-61
2024/04/11 07:29:03;;;;;;;4.80;1.75;;;;;;;8.07;100.00;98858.03;5420080;26;20018;-60
2024/04/11 07:31:33;;;;;;;5.57;1.45;;;;;;;8.13;100.00;98862.66;5404156;26;20008;-61
2024/04/11 07:34:02;;;;;;;4.45;1.77;;;;;;;8.29;100.00;98863.38;5400375;26;20007;-61
2024/04/11 07:36:32;;;;;;;8.68;2.05;;;;;;;8.54;100.00;98866.41;5438026;26;20017;-61
2024/04/11 07:38:59;;;;;;;6.88;1.73;;;;;;;8.54;100.00;98866.41;5426503;26;20333;-60
2024/04/11 07:41:44;;;;;;;7.10;2.13;;;;;;;8.66;100.00;98865.81;5409272;26;20016;-61
2024/04/11 07:44:22;;;;;;;5.13;1.98;;;;;;;8.78;100.00;98852.56;5411495;26;20004;-61
2024/04/11 07:46:54;;;;;;;7.20;1.63;;;;;;;8.91;100.00;98857.16;5428013;26;20685;-61
2024/04/11 07:49:40;;;;;;;6.07;2.53;;;;;;;8.96;100.00;98851.97;5408656;26;20560;-61
2024/04/11 07:52:10;;;;;;;5.47;2.47;;;;;;;9.15;100.00;98854.91;5427793;26;20026;-61
2024/04/11 07:54:38;;;;;;;5.72;1.92;;;;;;;9.35;100.00;98855.78;5419332;26;19995;-61
2024/04/11 07:57:13;;;;;;;3.58;1.90;;;;;;;9.47;100.00;98860.56;5413743;26;20003;-61
2024/04/11 07:59:41;;;;;;;4.60;1.55;;;;;;;9.59;100.00;98860.75;5423121;26;20007;-60
2024/04/11 08:02:10;;;;;;;6.03;2.10;;;;;;;9.66;100.00;98863.47;5428674;26;20018;-61
2024/04/11 08:04:37;;;;;;;3.80;1.70;;;;;;;9.68;100.00;98867.63;5403777;26;20200;-61
2024/04/11 08:07:03;;;;;;;5.80;1.77;;;;;;;9.84;100.00;98865.53;5425008;26;20023;-61
2024/04/11 08:09:44;;;;;;;7.00;1.95;;;;;;;9.96;99.37;98869.25;5414352;26;20049;-61
2024/04/11 08:12:11;;;;;;;4.60;1.77;;;;;;;10.12;96.17;98867.13;5431216;26;20067;-61
2024/04/11 08:14:38;;;;;;;6.13;1.92;;;;;;;10.17;96.82;98864.63;5434382;26;19999;-62
2024/04/11 08:17:04;;;;;;;5.32;1.88;;;;;;;10.26;94.18;98852.53;5404072;26;20015;-61
2024/04/11 08:19:31;;;;;;;4.18;1.63;;;;;;;10.25;94.58;98856.25;5419246;26;20011;-61
2024/04/11 08:22:06;;;;;;;8.93;1.75;;;;;;;10.32;97.13;98867.06;5426510;26;20011;-60
2024/04/11 08:24:33;;;;;;;4.05;1.60;;;;;;;10.46;99.21;98861.66;5437166;26;20038;-61
2024/04/11 08:27:00;;;;;;;5.07;2.10;;;;;;;10.62;93.43;98861.16;5431348;26;20072;-62
2024/04/11 08:29:26;;;;;;;6.38;2.00;;;;;;;10.71;94.21;98866.31;5416619;26;20011;-61
2024/04/11 08:31:53;;;;;;;5.45;1.80;;;;;;;10.79;91.95;98866.91;5417281;26;20012;-61
2024/04/11 08:34:21;;;;;;;6.28;1.45;;;;;;;10.78;90.05;98875.25;5419172;26;20012;-61
2024/04/11 08:36:52;;;;;;;7.15;1.90;;;;;;;10.85;91.07;98869.78;5438384;26;20003;-61
2024/04/11 08:39:22;;;;;;;4.38;1.65;;;;;;;11.03;93.10;98875.31;5430931;26;20000;-61
2024/04/11 08:41:51;;;;;;;6.38;1.95;;;;;;;11.12;88.21;98869.63;5408409;26;20019;-61
2024/04/11 08:44:19;;;;;;;4.55;1.98;;;;;;;11.19;88.00;98865.84;5436303;26;19996;-61
2024/04/11 08:46:46;;;;;;;6.32;2.35;;;;;;;11.23;88.16;98868.94;5441080;26;20027;-61
2024/04/11 08:49:13;;;;;;;6.03;2.25;;;;;;;11.23;88.73;98865.38;5413715;26;20766;-61
2024/04/11 08:51:42;;;;;;;6.13;1.60;;;;;;;11.27;87.49;98864.75;5426677;26;20013;-61
2024/04/11 08:54:10;;;;;;;6.30;1.80;;;;;;;11.36;88.57;98862.59;5422916;26;20015;-61
2024/04/11 08:56:37;;;;;;;5.03;1.60;;;;;;;11.43;87.51;98867.97;5417302;26;20014;-60
2024/04/11 08:59:05;;;;;;;5.25;1.80;;;;;;;11.49;86.21;98871.66;5416933;26;20018;-60
2024/04/11 09:01:32;;;;;;;5.78;1.90;;;;;;;11.54;86.53;98866.44;5421140;26;20084;-61
2024/04/11 09:03:59;;;;;;;5.60;1.80;;;;;;;11.58;87.23;98873.06;5401396;26;20018;-61
2024/04/11 09:06:28;;;;;;;7.85;2.30;;;;;;;11.71;83.03;98874.81;5415769;26;20798;-61
2024/04/11 09:08:57;;;;;;;10.32;2.60;;;;;;;11.88;80.56;98877.81;5437036;26;20045;-61
2024/04/11 09:11:27;;;;;;;4.65;1.27;;;;;;;11.97;82.63;98876.47;5417591;26;20018;-61
2024/04/11 09:14:01;;;;;;;5.72;1.40;;;;;;;11.98;79.72;98877.31;5409744;26;20007;-61
2024/04/11 09:16:27;;;;;;;4.35;2.20;;;;;;;12.05;79.06;98883.50;5421176;26;20018;-60
2024/04/11 09:19:01;;;;;;;6.97;1.38;;;;;;;12.21;75.26;98890.22;5402107;26;20004;-61
2024/04/11 09:21:30;;;;;;;4.35;1.40;;;;;;;12.30;76.12;98887.22;5418041;26;20007;-61
2024/04/11 09:23:57;;;;;;;7.28;1.85;;;;;;;12.36;75.78;98889.88;5413461;26;20076;-61
2024/04/11 09:26:30;;;;;;;4.03;1.48;;;;;;;12.41;72.75;98888.34;5410918;26;20452;-61
2024/04/11 09:28:57;;;;;;;6.65;1.88;;;;;;;12.46;69.62;98894.78;5399782;26;20030;-61
2024/04/11 09:31:26;;;;;;;9.50;1.80;;;;;;;12.57;66.22;98901.34;5414590;26;20329;-61
2024/04/11 09:33:53;;;;;;;5.43;1.70;;;;;;;12.59;64.93;98898.41;5410220;26;20010;-61
2024/04/11 09:36:23;;;;;;;6.00;1.63;;;;;;;12.57;64.57;98892.38;5411259;26;20051;-61
2024/04/11 09:39:04;;;;;;;4.22;1.48;;;;;;;12.69;62.63;98903.31;5405232;26;20479;-61
2024/04/11 09:41:34;;;;;;;6.82;1.40;;;;;;;12.75;62.71;98905.94;5407592;26;19995;-61
2024/04/11 09:44:06;;;;;;;6.20;1.40;;;;;;;12.87;62.69;98911.41;5405733;26;20011;-61
2024/04/11 09:46:41;;;;;;;4.97;1.38;;;;;;;13.03;60.55;98909.13;5406351;26;20016;-61
2024/04/11 09:49:10;;;;;;;4.18;1.33;;;;;;;13.12;60.33;98910.47;5415363;26;20018;-60
2024/04/11 09:51:38;;;;;;;6.00;1.45;;;;;;;13.17;59.80;98906.22;5403847;26;20008;-61
2024/04/11 09:54:12;;;;;;;5.30;1.50;;;;;;;13.10;59.00;98919.91;5398898;26;20012;-61
2024/04/11 09:56:44;;;;;;;3.88;1.23;;;;;;;12.99;58.41;98913.38;5409487;26;20018;-61
2024/04/11 09:59:12;;;;;;;5.00;1.52;;;;;;;12.96;58.59;98922.81;5399824;26;20006;-61
2024/04/11 10:01:40;;;;;;;7.88;2.47;;;;;;;13.00;58.85;98918.59;5411720;26;20306;-60
2024/04/11 10:04:25;;;;;;;7.07;1.80;;;;;;;13.09;57.87;98921.78;5408339;26;20000;-61
2024/04/11 10:06:52;;;;;;;4.70;1.80;;;;;;;13.17;59.17;98919.81;5409809;26;20002;-61
2024/04/11 10:09:29;;;;;;;13.73;2.28;;;;;;;13.26;57.56;98913.00;5416832;26;20011;-62
2024/04/11 10:12:04;;;;;;;5.30;1.92;;;;;;;13.27;57.90;98915.47;5413906;26;20048;-61
2024/04/11 10:14:35;;;;;;;7.82;2.25;;;;;;;13.34;61.25;98915.38;5391800;26;20019;-61
2024/04/11 10:17:05;;;;;;;5.57;2.28;;;;;;;13.31;61.15;98907.72;5420362;26;20010;-61
2024/04/11 10:19:33;;;;;;;5.88;2.47;;;;;;;13.43;62.22;98917.78;5394188;26;20018;-61
2024/04/11 10:22:07;;;;;;;7.93;3.20;;;;;;;13.52;61.61;98919.97;5424860;26;20002;-61
2024/04/11 10:24:35;;;;;;;5.25;2.08;;;;;;;13.49;59.40;98925.06;5410725;26;20011;-61
2024/04/11 10:27:18;;;;;;;5.03;2.05;;;;;;;13.35;60.43;98916.22;5424228;26;20009;-61
2024/04/11 10:29:47;;;;;;;6.03;2.50;;;;;;;13.57;60.49;98919.28;5429154;26;20054;-61
2024/04/11 10:32:22;;;;;;;8.45;3.20;;;;;;;13.62;59.88;98916.69;5419715;26;20233;-61
2024/04/11 10:34:56;;;;;;;6.32;2.63;;;;;;;13.65;59.37;98927.06;5414606;26;20035;-61
2024/04/11 10:37:25;;;;;;;5.28;2.40;;;;;;;13.68;59.06;98911.34;5408004;26;20008;-61
2024/04/11 10:39:57;;;;;;;8.02;2.55;;;;;;;13.75;59.92;98925.69;5415229;26;20000;-60
2024/04/11 10:42:36;;;;;;;6.35;2.47;;;;;;;13.59;58.24;98928.03;5427330;26;19995;-61
2024/04/11 10:45:10;;;;;;;4.93;2.47;;;;;;;13.70;58.60;98928.25;5385687;26;20035;-61
2024/04/11 10:47:38;;;;;;;6.40;2.28;;;;;;;13.76;58.93;98922.75;5432537;26;20011;-61
2024/04/11 10:50:09;;;;;;;7.57;2.38;;;;;;;13.90;58.86;98915.16;5405736;26;20003;-60
2024/04/11 10:52:45;;;;;;;8.70;2.33;;;;;;;13.87;58.15;98923.81;5407647;26;20015;-61
2024/04/11 10:55:28;;;;;;;5.38;2.28;;;;;;;14.03;57.87;98922.28;5418915;26;20023;-61
2024/04/11 10:58:09;;;;;;;5.88;2.28;;;;;;;14.01;56.41;98932.56;5425351;26;20012;-61
2024/04/11 11:03:46;;;;;;;6.55;2.20;;;;;;;14.13;56.22;98920.84;5406032;26;20261;-61
2024/04/11 11:06:24;;;;;;;7.78;3.42;;;;;;;14.20;56.79;98920.72;5395592;26;19999;-61
2024/04/11 11:09:12;;;;;;;9.95;2.50;;;;;;;14.01;55.60;98912.69;5405527;26;20015;-61
2024/04/11 11:11:44;;;;;;;5.28;2.40;;;;;;;13.93;56.38;98913.84;5395591;26;20479;-61
2024/04/11 11:14:20;;;;;;;6.88;2.80;;;;;;;14.16;56.71;98915.75;5398884;26;20006;-61
2024/04/11 11:16:47;;;;;;;5.35;2.45;;;;;;;14.30;56.25;98921.78;5425431;26;20084;-60
2024/04/11 11:19:16;;;;;;;6.07;2.45;;;;;;;14.24;55.46;98908.28;5414395;26;20012;-62
2024/04/11 11:21:50;;;;;;;6.53;2.38;;;;;;;14.27;53.83;98910.53;5402354;26;19999;-60
2024/04/11 11:24:23;;;;;;;14.23;2.83;;;;;;;14.31;55.56;98915.25;5418816;26;20004;-60
2024/04/11 11:26:59;;;;;;;5.53;2.22;;;;;;;14.49;56.17;98907.19;5414098;26;20000;-60
2024/04/11 11:29:27;;;;;;;10.35;3.53;;;;;;;14.72;55.21;98906.31;5404344;26;20054;-61
2024/04/11 11:32:01;;;;;;;7.28;2.63;;;;;;;14.91;53.60;98909.72;5409361;26;20579;-61
2024/04/11 11:34:35;;;;;;;7.68;2.80;;;;;;;14.86;54.62;98904.19;5427973;26;19998;-60
2024/04/11 11:37:03;;;;;;;5.40;2.60;;;;;;;15.07;53.83;98899.09;5417622;26;20019;-61
2024/04/11 11:39:35;;;;;;;3.80;2.08;;;;;;;15.18;52.13;98895.50;5418255;26;20000;-61
2024/04/11 11:42:08;;;;;;;6.25;2.90;;;;;;;15.28;53.03;98888.56;5426122;26;19995;-60
2024/04/11 11:47:33;;;;;;;6.50;2.47;;;;;;;15.28;52.04;98881.22;5409115;26;20046;-61